createdAt,value
2018-12-25T00:04:29.465Z,3.30
2018-12-25T00:09:34.722Z,3.30
2018-12-25T00:14:39.991Z,3.30
2018-12-25T00:19:45.323Z,3.30
2018-12-25T00:24:50.573Z,3.40
2018-12-25T00:29:55.821Z,3.30
2018-12-25T00:35:01.087Z,3.40
2018-12-25T00:40:06.343Z,3.40
2018-12-25T00:45:11.594Z,3.30
2018-12-25T00:50:16.966Z,3.30
2018-12-25T00:55:22.170Z,3.30
2018-12-25T01:00:27.428Z,3.30
2018-12-25T01:05:32.785Z,3.30
2018-12-25T01:10:38.046Z,3.20
2018-12-25T01:15:43.291Z,3.30
2018-12-25T01:20:48.545Z,3.40
2018-12-25T01:25:53.804Z,3.40
2018-12-25T01:30:59.059Z,3.30
2018-12-25T01:36:04.310Z,3.40
2018-12-25T01:41:09.550Z,3.50
2018-12-25T01:46:14.873Z,3.50
2018-12-25T01:51:20.141Z,3.50
2018-12-25T01:56:25.397Z,3.50
2018-12-25T02:01:30.665Z,3.50
2018-12-25T02:06:35.930Z,3.50
2018-12-25T02:11:41.185Z,3.50
2018-12-25T02:16:46.465Z,3.50
2018-12-25T02:21:51.834Z,3.60
2018-12-25T02:26:57.065Z,3.50
2018-12-25T02:32:02.387Z,3.60
2018-12-25T02:37:07.725Z,3.70
2018-12-25T02:42:13.079Z,3.70
2018-12-25T02:47:18.371Z,3.70
2018-12-25T02:52:23.696Z,3.80
2018-12-25T02:57:28.980Z,3.80
2018-12-25T03:02:34.267Z,3.80
2018-12-25T03:07:39.529Z,3.80
2018-12-25T03:12:44.786Z,3.80
2018-12-25T03:17:50.054Z,3.80
2018-12-25T03:22:55.328Z,3.90
2018-12-25T03:28:00.793Z,4.00
2018-12-25T03:33:06.065Z,4.00
2018-12-25T03:38:11.333Z,4.00
2018-12-25T03:43:16.674Z,4.10
2018-12-25T03:48:21.933Z,4.10
2018-12-25T03:53:27.201Z,4.10
2018-12-25T03:58:32.470Z,4.10
2018-12-25T04:03:37.727Z,4.20
2018-12-25T04:08:42.999Z,4.20
2018-12-25T04:13:48.273Z,4.30
2018-12-25T04:18:53.571Z,4.30
2018-12-25T04:23:58.834Z,4.30
2018-12-25T04:29:04.161Z,4.30
2018-12-25T04:34:09.436Z,4.40
2018-12-25T04:39:14.708Z,4.30
2018-12-25T04:44:19.966Z,4.30
2018-12-25T04:49:25.235Z,4.50
2018-12-25T04:54:30.553Z,4.50
2018-12-25T04:59:35.856Z,4.40
2018-12-25T05:04:41.135Z,4.50
2018-12-25T05:09:46.438Z,4.60
2018-12-25T05:14:51.763Z,4.60
2018-12-25T05:19:57.037Z,4.60
2018-12-25T05:25:02.306Z,4.60
2018-12-25T05:30:07.610Z,4.60
2018-12-25T05:35:12.941Z,4.60
2018-12-25T05:40:18.221Z,4.60
2018-12-25T05:45:23.478Z,4.60
2018-12-25T05:50:28.736Z,4.70
2018-12-25T05:55:33.999Z,4.70
2018-12-25T06:00:39.356Z,4.70
2018-12-25T06:05:44.614Z,4.70
2018-12-25T06:10:49.913Z,4.60
2018-12-25T06:15:55.178Z,4.60
2018-12-25T06:21:00.450Z,4.60
2018-12-25T06:26:05.698Z,4.60
2018-12-25T06:31:11.025Z,4.60
2018-12-25T06:36:16.431Z,4.60
2018-12-25T06:41:21.690Z,4.50
2018-12-25T06:46:26.951Z,4.50
2018-12-25T06:51:32.213Z,4.50
2018-12-25T06:56:37.467Z,4.60
2018-12-25T07:01:43.586Z,4.50
2018-12-25T07:07:51.793Z,4.50
2018-12-25T07:12:57.082Z,4.40
2018-12-25T07:18:02.389Z,4.40
2018-12-25T07:23:07.678Z,4.40
2018-12-25T07:28:12.938Z,4.40
2018-12-25T07:33:18.199Z,4.30
2018-12-25T07:38:23.469Z,4.30
2018-12-25T07:43:28.734Z,4.30
2018-12-25T07:48:34.120Z,4.40
2018-12-25T07:53:39.369Z,4.30
2018-12-25T07:58:44.698Z,4.30
2018-12-25T08:03:49.981Z,4.30
2018-12-25T08:08:55.208Z,4.30
2018-12-25T08:14:00.485Z,4.30
2018-12-25T08:19:05.793Z,4.20
2018-12-25T08:24:11.053Z,4.20
2018-12-25T08:29:16.398Z,4.30
2018-12-25T08:34:21.622Z,4.30
2018-12-25T08:39:26.909Z,4.40
2018-12-25T08:44:32.177Z,4.40
2018-12-25T08:49:37.442Z,4.40
2018-12-25T08:54:42.718Z,4.50
2018-12-25T08:59:48.029Z,4.50
2018-12-25T09:04:54.521Z,4.60
2018-12-25T09:09:59.874Z,4.60
2018-12-25T09:15:05.313Z,4.60
2018-12-25T09:20:10.609Z,4.70
2018-12-25T09:25:15.893Z,4.70
2018-12-25T09:30:21.660Z,4.70
2018-12-25T09:35:26.985Z,4.70
2018-12-25T09:40:32.297Z,4.60
2018-12-25T09:45:37.665Z,4.80
2018-12-25T09:50:43.001Z,4.80
2018-12-25T09:55:48.255Z,4.80
2018-12-25T10:00:53.504Z,4.90
2018-12-25T10:05:58.752Z,4.90
2018-12-25T10:11:03.969Z,4.90
2018-12-25T10:16:10.321Z,4.90
2018-12-25T10:21:15.585Z,5.00
2018-12-25T10:26:20.914Z,5.00
2018-12-25T10:31:26.411Z,5.10
2018-12-25T10:36:31.883Z,5.10
2018-12-25T10:41:37.207Z,5.20
2018-12-25T10:46:42.693Z,5.30
2018-12-25T10:51:48.061Z,5.30
2018-12-25T10:56:53.381Z,5.30
2018-12-25T11:01:58.742Z,5.40
2018-12-25T11:07:03.999Z,5.50
2018-12-25T11:12:09.262Z,5.50
2018-12-25T11:17:14.603Z,5.50
2018-12-25T11:22:20.197Z,5.50
2018-12-25T11:27:25.206Z,5.50
2018-12-25T11:32:30.457Z,5.60
2018-12-25T11:37:35.690Z,5.70
2018-12-25T11:42:40.982Z,5.80
2018-12-25T11:47:46.354Z,5.80
2018-12-25T11:52:51.706Z,5.90
2018-12-25T11:57:57.050Z,6.10
2018-12-25T12:03:02.403Z,6.10
2018-12-25T12:08:07.663Z,6.10
2018-12-25T12:13:13.034Z,6.10
2018-12-25T12:18:19.565Z,6.10
2018-12-25T12:23:25.041Z,6.70
2018-12-25T12:28:30.557Z,6.00
2018-12-25T12:33:37.024Z,6.00
2018-12-25T12:38:42.454Z,6.00
2018-12-25T12:43:47.765Z,6.00
2018-12-25T12:48:53.021Z,6.00
2018-12-25T12:53:58.416Z,6.00
2018-12-25T12:59:03.846Z,6.00
2018-12-25T13:04:12.758Z,6.00
2018-12-25T13:09:23.566Z,5.90
2018-12-25T13:14:28.882Z,5.90
2018-12-25T13:19:34.176Z,6.00
2018-12-25T13:24:39.482Z,5.90
2018-12-25T13:29:44.768Z,5.90
2018-12-25T13:34:50.063Z,5.90
2018-12-25T13:39:55.380Z,5.80
2018-12-25T13:45:00.684Z,5.90
2018-12-25T13:50:08.272Z,5.80
2018-12-25T13:55:13.575Z,5.80
2018-12-25T14:00:19.005Z,5.80
2018-12-25T14:05:24.505Z,5.90
2018-12-25T14:10:29.857Z,5.90
2018-12-25T14:15:35.113Z,5.90
2018-12-25T14:20:40.358Z,5.80
2018-12-25T14:25:45.599Z,5.80
2018-12-25T14:30:50.901Z,5.80
2018-12-25T14:35:56.102Z,5.80
2018-12-25T14:41:01.354Z,5.70
2018-12-25T14:46:06.597Z,5.80
2018-12-25T14:51:11.817Z,5.80
2018-12-25T14:56:17.077Z,5.80
2018-12-25T15:01:22.329Z,5.80
2018-12-25T15:06:27.568Z,5.70
2018-12-25T15:11:32.811Z,5.70
2018-12-25T15:16:38.046Z,5.70
2018-12-25T15:21:43.263Z,5.70
2018-12-25T15:26:48.485Z,5.70
2018-12-25T15:31:53.713Z,5.70
2018-12-25T15:36:58.948Z,5.70
2018-12-25T15:42:04.165Z,5.70
2018-12-25T15:47:09.413Z,5.70
2018-12-25T15:52:14.665Z,5.70
2018-12-25T15:57:19.918Z,5.70
2018-12-25T16:02:25.180Z,5.70
2018-12-25T16:07:30.421Z,5.70
2018-12-25T16:12:35.650Z,5.70
2018-12-25T16:17:42.867Z,5.70
2018-12-25T16:22:52.486Z,5.70
2018-12-25T16:27:55.934Z,5.70
2018-12-25T16:33:01.171Z,5.70
2018-12-25T16:38:06.382Z,5.70
2018-12-25T16:43:11.614Z,5.70
2018-12-25T16:48:16.838Z,5.80
2018-12-25T16:53:22.061Z,5.80
2018-12-25T16:58:27.304Z,5.80
2018-12-25T17:03:32.534Z,5.70
2018-12-25T17:08:37.770Z,5.80
2018-12-25T17:13:42.994Z,5.80
2018-12-25T17:18:48.231Z,5.80
2018-12-25T17:24:01.871Z,5.70
2018-12-25T17:28:58.757Z,5.80
2018-12-25T17:34:03.998Z,5.70
2018-12-25T17:39:09.370Z,5.70
2018-12-25T17:44:14.602Z,5.80
2018-12-25T17:49:19.845Z,5.80
2018-12-25T17:54:25.073Z,5.70
2018-12-25T17:59:30.297Z,5.80
2018-12-25T18:04:35.520Z,5.80
2018-12-25T18:09:40.773Z,5.70
2018-12-25T18:14:46.013Z,5.80
2018-12-25T18:19:51.285Z,5.80
2018-12-25T18:24:56.518Z,5.80
2018-12-25T18:30:01.759Z,5.80
2018-12-25T18:35:07.013Z,5.80
2018-12-25T18:40:12.267Z,5.70
2018-12-25T18:45:17.532Z,5.70
2018-12-25T18:50:22.741Z,5.70
2018-12-25T18:55:27.997Z,5.70
2018-12-25T19:00:33.314Z,5.70
2018-12-25T19:05:38.647Z,5.80
2018-12-25T19:10:43.914Z,5.70
2018-12-25T19:15:52.170Z,5.70
2018-12-25T19:20:57.425Z,5.70
2018-12-25T19:26:02.691Z,5.70
2018-12-25T19:31:07.932Z,5.70
2018-12-25T19:36:13.235Z,5.80
2018-12-25T19:41:18.480Z,5.80
2018-12-25T19:46:23.781Z,5.70
2018-12-25T19:51:29.018Z,5.80
2018-12-25T19:56:34.294Z,5.70
2018-12-25T20:01:39.558Z,5.70
2018-12-25T20:06:59.985Z,5.70
2018-12-25T20:13:27.097Z,5.70
2018-12-25T20:19:08.095Z,5.70
2018-12-25T20:24:40.241Z,5.70
2018-12-25T20:30:05.926Z,5.60
2018-12-25T20:36:06.703Z,5.70
2018-12-25T20:41:36.514Z,5.60
2018-12-25T20:47:53.773Z,5.60
2018-12-25T20:53:17.312Z,5.60
2018-12-25T20:58:48.329Z,5.70
2018-12-25T21:05:08.300Z,5.60
2018-12-25T21:12:42.458Z,5.60
2018-12-25T21:20:16.258Z,5.60
2018-12-25T21:25:38.551Z,5.60
2018-12-25T21:30:43.853Z,5.70
2018-12-25T21:35:49.085Z,5.70
2018-12-25T21:40:54.834Z,5.70
2018-12-25T21:46:00.097Z,5.70
2018-12-25T21:51:05.372Z,5.70
2018-12-25T21:56:10.634Z,5.70
2018-12-25T22:01:15.909Z,5.70
2018-12-25T22:06:21.138Z,5.70
2018-12-25T22:11:26.377Z,5.70
2018-12-25T22:16:31.610Z,5.70
2018-12-25T22:21:36.842Z,5.70
2018-12-25T22:26:42.077Z,5.70
2018-12-25T22:31:47.299Z,5.70
2018-12-25T22:36:52.546Z,5.70
2018-12-25T22:41:58.675Z,5.70
2018-12-25T22:47:03.202Z,5.80
2018-12-25T22:52:08.496Z,5.80
2018-12-25T22:57:13.737Z,5.80
2018-12-25T23:02:18.982Z,5.80
2018-12-25T23:07:24.228Z,5.80
2018-12-25T23:12:29.466Z,5.80
2018-12-25T23:17:34.698Z,5.90
2018-12-25T23:22:39.952Z,5.80
2018-12-25T23:27:45.176Z,5.90
2018-12-25T23:32:50.409Z,5.90
2018-12-25T23:37:55.673Z,5.90
2018-12-25T23:43:00.893Z,5.90
2018-12-25T23:48:06.144Z,5.90
2018-12-25T23:53:11.384Z,5.90
2018-12-25T23:58:16.637Z,5.90
